sensor_id;sensor_type;location;lat;lon;timestamp;temperature;humidity
21275;DHT22;36472;52.170;20.884;2022-10-17T00:01:20;26.60;52.90
21275;DHT22;36472;52.170;20.884;2022-10-17T00:03:50;26.60;52.90
21275;DHT22;36472;52.170;20.884;2022-10-17T00:06:18;26.60;53.00
21275;DHT22;36472;52.170;20.884;2022-10-17T00:08:47;26.60;53.00
21275;DHT22;36472;52.170;20.884;2022-10-17T00:11:18;26.60;53.10
21275;DHT22;36472;52.170;20.884;2022-10-17T00:17:06;26.60;53.10
21275;DHT22;36472;52.170;20.884;2022-10-17T00:19:36;26.60;53.00
21275;DHT22;36472;52.170;20.884;2022-10-17T00:22:04;26.60;53.10
21275;DHT22;36472;52.170;20.884;2022-10-17T00:24:33;26.50;53.00
21275;DHT22;36472;52.170;20.884;2022-10-17T00:27:02;26.50;53.10
21275;DHT22;36472;52.170;20.884;2022-10-17T00:29:31;26.50;53.10
21275;DHT22;36472;52.170;20.884;2022-10-17T00:32:00;26.50;53.00
21275;DHT22;36472;52.170;20.884;2022-10-17T00:34:29;26.40;53.00
21275;DHT22;36472;52.170;20.884;2022-10-17T00:36:59;26.50;53.10
21275;DHT22;36472;52.170;20.884;2022-10-17T00:39:28;26.50;53.10
21275;DHT22;36472;52.170;20.884;2022-10-17T00:41:57;26.50;53.00
21275;DHT22;36472;52.170;20.884;2022-10-17T00:44:59;26.50;52.80
21275;DHT22;36472;52.170;20.884;2022-10-17T00:47:32;26.50;52.70
21275;DHT22;36472;52.170;20.884;2022-10-17T00:50:06;26.50;52.60
21275;DHT22;36472;52.170;20.884;2022-10-17T00:52:37;26.50;52.60
21275;DHT22;36472;52.170;20.884;2022-10-17T00:55:11;26.50;52.60
21275;DHT22;36472;52.170;20.884;2022-10-17T00:57:42;26.60;52.60
21275;DHT22;36472;52.170;20.884;2022-10-17T01:00:14;26.50;52.50
21275;DHT22;36472;52.170;20.884;2022-10-17T01:02:44;26.50;52.70
21275;DHT22;36472;52.170;20.884;2022-10-17T01:05:15;26.40;53.30
21275;DHT22;36472;52.170;20.884;2022-10-17T01:07:48;26.40;53.30
21275;DHT22;36472;52.170;20.884;2022-10-17T01:10:20;26.40;52.80
21275;DHT22;36472;52.170;20.884;2022-10-17T01:13:03;26.40;52.70
21275;DHT22;36472;52.170;20.884;2022-10-17T01:15:54;26.50;52.80
21275;DHT22;36472;52.170;20.884;2022-10-17T01:18:41;26.40;52.70
21275;DHT22;36472;52.170;20.884;2022-10-17T01:21:36;26.40;52.80
21275;DHT22;36472;52.170;20.884;2022-10-17T01:24:48;26.40;52.90
21275;DHT22;36472;52.170;20.884;2022-10-17T01:28:04;26.40;52.90
21275;DHT22;36472;52.170;20.884;2022-10-17T01:31:03;26.40;53.10
21275;DHT22;36472;52.170;20.884;2022-10-17T01:33:47;26.40;53.20
21275;DHT22;36472;52.170;20.884;2022-10-17T01:36:35;26.40;53.30
21275;DHT22;36472;52.170;20.884;2022-10-17T01:39:14;26.40;53.40
21275;DHT22;36472;52.170;20.884;2022-10-17T01:41:57;26.40;54.10
21275;DHT22;36472;52.170;20.884;2022-10-17T01:44:35;26.50;54.20
21275;DHT22;36472;52.170;20.884;2022-10-17T01:47:14;26.40;53.50
21275;DHT22;36472;52.170;20.884;2022-10-17T01:49:48;26.40;53.60
21275;DHT22;36472;52.170;20.884;2022-10-17T01:52:23;26.60;53.70
21275;DHT22;36472;52.170;20.884;2022-10-17T01:54:56;26.60;53.50
21275;DHT22;36472;52.170;20.884;2022-10-17T01:57:33;26.60;53.50
21275;DHT22;36472;52.170;20.884;2022-10-17T02:00:10;26.60;53.40
21275;DHT22;36472;52.170;20.884;2022-10-17T02:02:44;26.60;53.40
21275;DHT22;36472;52.170;20.884;2022-10-17T02:05:18;26.60;53.30
21275;DHT22;36472;52.170;20.884;2022-10-17T02:07:51;26.60;53.20
21275;DHT22;36472;52.170;20.884;2022-10-17T02:10:24;26.60;53.20
21275;DHT22;36472;52.170;20.884;2022-10-17T02:13:04;26.60;53.20
21275;DHT22;36472;52.170;20.884;2022-10-17T02:15:51;26.60;53.00
21275;DHT22;36472;52.170;20.884;2022-10-17T02:21:44;26.50;52.90
21275;DHT22;36472;52.170;20.884;2022-10-17T02:24:29;26.50;52.90
21275;DHT22;36472;52.170;20.884;2022-10-17T02:27:07;26.70;52.70
21275;DHT22;36472;52.170;20.884;2022-10-17T02:29:46;26.60;52.50
21275;DHT22;36472;52.170;20.884;2022-10-17T02:32:22;26.50;52.60
21275;DHT22;36472;52.170;20.884;2022-10-17T02:35:00;26.50;52.70
21275;DHT22;36472;52.170;20.884;2022-10-17T02:37:31;26.40;52.70
21275;DHT22;36472;52.170;20.884;2022-10-17T02:40:02;26.40;52.80
21275;DHT22;36472;52.170;20.884;2022-10-17T02:42:37;26.40;52.80
21275;DHT22;36472;52.170;20.884;2022-10-17T02:45:08;26.40;52.70
21275;DHT22;36472;52.170;20.884;2022-10-17T02:47:45;26.40;52.70
21275;DHT22;36472;52.170;20.884;2022-10-17T02:50:30;26.30;52.70
21275;DHT22;36472;52.170;20.884;2022-10-17T02:53:23;26.30;52.70
21275;DHT22;36472;52.170;20.884;2022-10-17T02:56:02;26.20;52.70
21275;DHT22;36472;52.170;20.884;2022-10-17T02:58:37;26.30;52.80
21275;DHT22;36472;52.170;20.884;2022-10-17T03:01:09;26.20;52.70
21275;DHT22;36472;52.170;20.884;2022-10-17T03:03:38;26.20;52.70
21275;DHT22;36472;52.170;20.884;2022-10-17T03:06:08;26.20;52.70
21275;DHT22;36472;52.170;20.884;2022-10-17T03:08:38;26.20;52.60
21275;DHT22;36472;52.170;20.884;2022-10-17T03:11:07;26.20;52.50
21275;DHT22;36472;52.170;20.884;2022-10-17T03:13:36;26.20;52.50
21275;DHT22;36472;52.170;20.884;2022-10-17T03:16:06;26.30;52.40
21275;DHT22;36472;52.170;20.884;2022-10-17T03:18:37;26.30;52.40
21275;DHT22;36472;52.170;20.884;2022-10-17T03:21:08;26.20;52.50
21275;DHT22;36472;52.170;20.884;2022-10-17T03:23:37;26.20;52.70
21275;DHT22;36472;52.170;20.884;2022-10-17T03:26:07;26.20;52.90
21275;DHT22;36472;52.170;20.884;2022-10-17T03:28:38;26.20;53.00
21275;DHT22;36472;52.170;20.884;2022-10-17T03:31:08;26.20;53.00
21275;DHT22;36472;52.170;20.884;2022-10-17T03:33:38;26.10;53.00
21275;DHT22;36472;52.170;20.884;2022-10-17T03:36:10;26.20;53.10
21275;DHT22;36472;52.170;20.884;2022-10-17T03:38:44;26.20;53.20
21275;DHT22;36472;52.170;20.884;2022-10-17T03:41:16;26.10;53.20
21275;DHT22;36472;52.170;20.884;2022-10-17T03:43:44;26.10;53.30
21275;DHT22;36472;52.170;20.884;2022-10-17T03:46:13;26.20;54.10
21275;DHT22;36472;52.170;20.884;2022-10-17T03:48:47;26.20;53.30
21275;DHT22;36472;52.170;20.884;2022-10-17T03:51:17;26.20;53.30
21275;DHT22;36472;52.170;20.884;2022-10-17T03:53:51;26.20;53.90
21275;DHT22;36472;52.170;20.884;2022-10-17T03:56:22;26.10;53.20
21275;DHT22;36472;52.170;20.884;2022-10-17T03:59:04;26.00;53.30
21275;DHT22;36472;52.170;20.884;2022-10-17T04:01:35;26.00;53.40
21275;DHT22;36472;52.170;20.884;2022-10-17T04:04:04;26.10;54.10
21275;DHT22;36472;52.170;20.884;2022-10-17T04:06:36;26.00;53.40
21275;DHT22;36472;52.170;20.884;2022-10-17T04:09:06;26.10;53.40
21275;DHT22;36472;52.170;20.884;2022-10-17T04:11:45;26.10;53.30
21275;DHT22;36472;52.170;20.884;2022-10-17T04:14:14;26.10;53.30
21275;DHT22;36472;52.170;20.884;2022-10-17T04:16:42;26.10;53.20
21275;DHT22;36472;52.170;20.884;2022-10-17T04:19:16;26.20;53.20
21275;DHT22;36472;52.170;20.884;2022-10-17T04:21:47;26.30;52.70
21275;DHT22;36472;52.170;20.884;2022-10-17T04:24:17;26.30;52.50
21275;DHT22;36472;52.170;20.884;2022-10-17T04:26:58;26.20;52.40
21275;DHT22;36472;52.170;20.884;2022-10-17T04:29:29;26.20;52.40
21275;DHT22;36472;52.170;20.884;2022-10-17T04:32:07;26.20;52.50
21275;DHT22;36472;52.170;20.884;2022-10-17T04:34:43;26.10;52.50
21275;DHT22;36472;52.170;20.884;2022-10-17T04:37:17;26.00;52.50
21275;DHT22;36472;52.170;20.884;2022-10-17T04:39:49;25.90;52.60
21275;DHT22;36472;52.170;20.884;2022-10-17T04:42:18;25.90;52.90
21275;DHT22;36472;52.170;20.884;2022-10-17T04:44:47;25.80;53.20
21275;DHT22;36472;52.170;20.884;2022-10-17T04:47:17;25.70;53.30
21275;DHT22;36472;52.170;20.884;2022-10-17T04:49:46;25.70;53.60
21275;DHT22;36472;52.170;20.884;2022-10-17T04:52:15;25.60;53.70
21275;DHT22;36472;52.170;20.884;2022-10-17T04:54:49;25.60;53.80
21275;DHT22;36472;52.170;20.884;2022-10-17T04:57:18;25.70;53.90
21275;DHT22;36472;52.170;20.884;2022-10-17T04:59:55;25.80;53.70
21275;DHT22;36472;52.170;20.884;2022-10-17T05:02:50;25.80;53.60
21275;DHT22;36472;52.170;20.884;2022-10-17T05:05:19;25.80;53.40
21275;DHT22;36472;52.170;20.884;2022-10-17T05:07:50;25.80;53.40
21275;DHT22;36472;52.170;20.884;2022-10-17T05:10:24;25.80;53.40
21275;DHT22;36472;52.170;20.884;2022-10-17T05:12:53;25.90;53.40
21275;DHT22;36472;52.170;20.884;2022-10-17T05:15:26;25.90;53.30
21275;DHT22;36472;52.170;20.884;2022-10-17T05:17:56;25.90;53.30
21275;DHT22;36472;52.170;20.884;2022-10-17T05:20:28;25.90;53.30
21275;DHT22;36472;52.170;20.884;2022-10-17T05:22:57;26.00;53.30
21275;DHT22;36472;52.170;20.884;2022-10-17T05:25:32;26.00;53.20
21275;DHT22;36472;52.170;20.884;2022-10-17T05:28:01;26.00;53.80
21275;DHT22;36472;52.170;20.884;2022-10-17T05:30:30;26.00;53.10
21275;DHT22;36472;52.170;20.884;2022-10-17T05:33:04;25.90;53.20
21275;DHT22;36472;52.170;20.884;2022-10-17T05:35:33;26.00;53.30
21275;DHT22;36472;52.170;20.884;2022-10-17T05:38:02;26.00;53.30
21275;DHT22;36472;52.170;20.884;2022-10-17T05:40:34;26.10;53.30
21275;DHT22;36472;52.170;20.884;2022-10-17T05:43:04;26.20;53.10
21275;DHT22;36472;52.170;20.884;2022-10-17T05:45:34;26.20;53.00
21275;DHT22;36472;52.170;20.884;2022-10-17T05:48:06;26.30;53.00
21275;DHT22;36472;52.170;20.884;2022-10-17T05:50:36;26.50;52.60
21275;DHT22;36472;52.170;20.884;2022-10-17T05:53:11;26.50;53.30
21275;DHT22;36472;52.170;20.884;2022-10-17T05:55:54;26.50;52.70
21275;DHT22;36472;52.170;20.884;2022-10-17T05:58:24;26.40;52.90
21275;DHT22;36472;52.170;20.884;2022-10-17T06:01:32;26.40;53.00
21275;DHT22;36472;52.170;20.884;2022-10-17T06:04:01;26.40;53.10
21275;DHT22;36472;52.170;20.884;2022-10-17T06:06:31;26.40;53.10
21275;DHT22;36472;52.170;20.884;2022-10-17T06:09:00;26.40;53.20
21275;DHT22;36472;52.170;20.884;2022-10-17T06:11:34;26.40;53.30
21275;DHT22;36472;52.170;20.884;2022-10-17T06:14:04;26.40;53.50
21275;DHT22;36472;52.170;20.884;2022-10-17T06:16:37;26.40;53.60
21275;DHT22;36472;52.170;20.884;2022-10-17T06:19:05;26.50;53.70
21275;DHT22;36472;52.170;20.884;2022-10-17T06:21:34;26.60;53.50
21275;DHT22;36472;52.170;20.884;2022-10-17T06:24:19;26.80;53.50
21275;DHT22;36472;52.170;20.884;2022-10-17T06:26:52;26.80;53.40
21275;DHT22;36472;52.170;20.884;2022-10-17T06:29:21;26.80;53.40
21275;DHT22;36472;52.170;20.884;2022-10-17T06:31:51;26.90;53.50
21275;DHT22;36472;52.170;20.884;2022-10-17T06:34:20;26.90;53.70
21275;DHT22;36472;52.170;20.884;2022-10-17T06:36:49;26.90;54.00
21275;DHT22;36472;52.170;20.884;2022-10-17T06:39:19;27.00;54.20
21275;DHT22;36472;52.170;20.884;2022-10-17T06:41:57;27.10;54.30
21275;DHT22;36472;52.170;20.884;2022-10-17T06:44:43;27.20;54.30
21275;DHT22;36472;52.170;20.884;2022-10-17T06:47:38;27.30;54.30
21275;DHT22;36472;52.170;20.884;2022-10-17T06:50:22;27.30;54.40
21275;DHT22;36472;52.170;20.884;2022-10-17T06:53:04;27.40;54.70
21275;DHT22;36472;52.170;20.884;2022-10-17T06:55:50;27.50;54.60
21275;DHT22;36472;52.170;20.884;2022-10-17T06:58:37;27.50;54.70
21275;DHT22;36472;52.170;20.884;2022-10-17T07:01:12;27.50;54.70
21275;DHT22;36472;52.170;20.884;2022-10-17T07:03:46;27.60;54.90
21275;DHT22;36472;52.170;20.884;2022-10-17T07:06:16;27.60;54.70
21275;DHT22;36472;52.170;20.884;2022-10-17T07:08:46;27.70;55.30
21275;DHT22;36472;52.170;20.884;2022-10-17T07:11:18;27.70;54.50
21275;DHT22;36472;52.170;20.884;2022-10-17T07:13:52;27.60;54.20
21275;DHT22;36472;52.170;20.884;2022-10-17T07:16:21;27.70;54.10
21275;DHT22;36472;52.170;20.884;2022-10-17T07:18:58;27.80;54.30
21275;DHT22;36472;52.170;20.884;2022-10-17T07:21:32;27.80;53.90
21275;DHT22;36472;52.170;20.884;2022-10-17T07:24:06;27.80;53.90
21275;DHT22;36472;52.170;20.884;2022-10-17T07:26:34;27.90;54.40
21275;DHT22;36472;52.170;20.884;2022-10-17T07:29:05;28.00;54.10
21275;DHT22;36472;52.170;20.884;2022-10-17T07:32:00;28.20;54.10
21275;DHT22;36472;52.170;20.884;2022-10-17T07:34:30;28.40;54.00
21275;DHT22;36472;52.170;20.884;2022-10-17T07:36:59;28.50;53.90
21275;DHT22;36472;52.170;20.884;2022-10-17T07:39:28;28.60;53.80
21275;DHT22;36472;52.170;20.884;2022-10-17T07:41:56;28.60;53.10
21275;DHT22;36472;52.170;20.884;2022-10-17T07:44:27;28.70;53.10
21275;DHT22;36472;52.170;20.884;2022-10-17T07:46:56;29.00;52.80
21275;DHT22;36472;52.170;20.884;2022-10-17T07:49:25;29.00;52.90
21275;DHT22;36472;52.170;20.884;2022-10-17T07:51:53;29.00;52.20
21275;DHT22;36472;52.170;20.884;2022-10-17T07:54:22;29.20;52.90
21275;DHT22;36472;52.170;20.884;2022-10-17T07:56:51;29.30;51.90
21275;DHT22;36472;52.170;20.884;2022-10-17T07:59:20;29.40;52.10
21275;DHT22;36472;52.170;20.884;2022-10-17T08:01:50;29.40;51.40
21275;DHT22;36472;52.170;20.884;2022-10-17T08:04:19;29.60;51.80
21275;DHT22;36472;52.170;20.884;2022-10-17T08:06:47;29.80;51.40
21275;DHT22;36472;52.170;20.884;2022-10-17T08:09:22;29.80;51.30
21275;DHT22;36472;52.170;20.884;2022-10-17T08:11:51;29.80;51.10
21275;DHT22;36472;52.170;20.884;2022-10-17T08:14:20;30.00;51.40
21275;DHT22;36472;52.170;20.884;2022-10-17T08:16:50;30.10;50.50
21275;DHT22;36472;52.170;20.884;2022-10-17T08:19:21;30.30;50.80
21275;DHT22;36472;52.170;20.884;2022-10-17T08:21:50;30.40;50.50
21275;DHT22;36472;52.170;20.884;2022-10-17T08:24:20;30.80;50.20
21275;DHT22;36472;52.170;20.884;2022-10-17T08:26:49;30.70;50.50
21275;DHT22;36472;52.170;20.884;2022-10-17T08:29:19;30.80;50.10
21275;DHT22;36472;52.170;20.884;2022-10-17T08:31:49;30.90;49.80
21275;DHT22;36472;52.170;20.884;2022-10-17T08:34:27;31.00;49.50
21275;DHT22;36472;52.170;20.884;2022-10-17T08:36:55;31.00;49.60
21275;DHT22;36472;52.170;20.884;2022-10-17T08:39:24;31.00;49.10
21275;DHT22;36472;52.170;20.884;2022-10-17T08:42:02;31.00;49.30
21275;DHT22;36472;52.170;20.884;2022-10-17T08:44:48;31.00;49.10
21275;DHT22;36472;52.170;20.884;2022-10-17T08:47:32;30.80;48.70
21275;DHT22;36472;52.170;20.884;2022-10-17T08:50:05;30.80;49.10
21275;DHT22;36472;52.170;20.884;2022-10-17T08:52:42;30.90;49.30
21275;DHT22;36472;52.170;20.884;2022-10-17T08:55:17;30.90;48.90
21275;DHT22;36472;52.170;20.884;2022-10-17T08:57:54;31.00;49.40
21275;DHT22;36472;52.170;20.884;2022-10-17T09:00:24;31.30;49.40
21275;DHT22;36472;52.170;20.884;2022-10-17T09:03:08;31.20;48.30
21275;DHT22;36472;52.170;20.884;2022-10-17T09:05:51;31.30;48.80
21275;DHT22;36472;52.170;20.884;2022-10-17T09:08:32;31.40;48.80
21275;DHT22;36472;52.170;20.884;2022-10-17T09:11:14;31.50;48.90
21275;DHT22;36472;52.170;20.884;2022-10-17T09:14:03;31.60;48.90
21275;DHT22;36472;52.170;20.884;2022-10-17T09:16:53;31.60;47.80
21275;DHT22;36472;52.170;20.884;2022-10-17T09:19:34;31.70;47.40
21275;DHT22;36472;52.170;20.884;2022-10-17T09:22:09;31.70;47.60
21275;DHT22;36472;52.170;20.884;2022-10-17T09:24:45;31.90;47.40
21275;DHT22;36472;52.170;20.884;2022-10-17T09:27:23;31.60;46.90
21275;DHT22;36472;52.170;20.884;2022-10-17T09:30:16;32.10;47.40
21275;DHT22;36472;52.170;20.884;2022-10-17T09:33:12;32.40;46.70
21275;DHT22;36472;52.170;20.884;2022-10-17T09:36:09;32.70;46.40
21275;DHT22;36472;52.170;20.884;2022-10-17T09:38:42;32.70;46.20
21275;DHT22;36472;52.170;20.884;2022-10-17T09:41:18;32.90;45.90
21275;DHT22;36472;52.170;20.884;2022-10-17T09:44:15;33.00;45.90
21275;DHT22;36472;52.170;20.884;2022-10-17T09:47:16;33.00;45.80
21275;DHT22;36472;52.170;20.884;2022-10-17T09:49:51;33.00;46.00
21275;DHT22;36472;52.170;20.884;2022-10-17T09:52:25;32.90;45.20
21275;DHT22;36472;52.170;20.884;2022-10-17T09:55:00;33.10;45.90
21275;DHT22;36472;52.170;20.884;2022-10-17T09:57:53;33.20;46.30
21275;DHT22;36472;52.170;20.884;2022-10-17T10:00:25;32.50;46.00
21275;DHT22;36472;52.170;20.884;2022-10-17T10:03:08;32.40;45.90
21275;DHT22;36472;52.170;20.884;2022-10-17T10:05:57;32.50;46.20
21275;DHT22;36472;52.170;20.884;2022-10-17T10:08:34;32.50;46.10
21275;DHT22;36472;52.170;20.884;2022-10-17T10:11:06;32.30;46.20
21275;DHT22;36472;52.170;20.884;2022-10-17T10:13:40;32.30;46.10
21275;DHT22;36472;52.170;20.884;2022-10-17T10:16:17;32.30;46.50
21275;DHT22;36472;52.170;20.884;2022-10-17T10:18:48;32.30;46.50
21275;DHT22;36472;52.170;20.884;2022-10-17T10:21:19;32.30;46.70
21275;DHT22;36472;52.170;20.884;2022-10-17T10:24:05;32.20;46.60
21275;DHT22;36472;52.170;20.884;2022-10-17T10:26:41;32.20;46.90
21275;DHT22;36472;52.170;20.884;2022-10-17T10:29:21;32.30;46.90
21275;DHT22;36472;52.170;20.884;2022-10-17T10:32:06;32.40;46.20
21275;DHT22;36472;52.170;20.884;2022-10-17T10:34:42;32.60;46.40
21275;DHT22;36472;52.170;20.884;2022-10-17T10:37:18;32.70;45.50
21275;DHT22;36472;52.170;20.884;2022-10-17T10:39:52;32.70;45.50
21275;DHT22;36472;52.170;20.884;2022-10-17T10:42:26;32.80;45.40
21275;DHT22;36472;52.170;20.884;2022-10-17T10:44:58;33.20;46.10
21275;DHT22;36472;52.170;20.884;2022-10-17T10:47:31;33.60;44.80
21275;DHT22;36472;52.170;20.884;2022-10-17T10:50:17;34.10;45.10
21275;DHT22;36472;52.170;20.884;2022-10-17T13:38:44;32.40;46.40
21275;DHT22;36472;52.170;20.884;2022-10-17T13:41:15;32.20;47.10
21275;DHT22;36472;52.170;20.884;2022-10-17T13:44:06;32.10;47.00
21275;DHT22;36472;52.170;20.884;2022-10-17T13:46:40;32.20;47.60
21275;DHT22;36472;52.170;20.884;2022-10-17T13:49:14;32.30;47.50
21275;DHT22;36472;52.170;20.884;2022-10-17T13:51:50;32.40;48.10
21275;DHT22;36472;52.170;20.884;2022-10-17T13:54:34;32.40;47.30
21275;DHT22;36472;52.170;20.884;2022-10-17T13:57:17;32.30;47.20
21275;DHT22;36472;52.170;20.884;2022-10-17T13:59:49;32.30;47.00
21275;DHT22;36472;52.170;20.884;2022-10-17T14:02:22;32.40;47.70
21275;DHT22;36472;52.170;20.884;2022-10-17T14:05:00;32.40;47.50
21275;DHT22;36472;52.170;20.884;2022-10-17T14:07:50;32.40;47.70
21275;DHT22;36472;52.170;20.884;2022-10-17T14:10:43;32.40;47.30
21275;DHT22;36472;52.170;20.884;2022-10-17T14:13:20;32.40;47.50
21275;DHT22;36472;52.170;20.884;2022-10-17T14:15:51;32.50;47.70
21275;DHT22;36472;52.170;20.884;2022-10-17T14:18:25;32.50;47.40
21275;DHT22;36472;52.170;20.884;2022-10-17T14:21:03;32.60;47.60
21275;DHT22;36472;52.170;20.884;2022-10-17T14:24:12;32.60;47.90
21275;DHT22;36472;52.170;20.884;2022-10-17T14:26:49;32.70;47.40
21275;DHT22;36472;52.170;20.884;2022-10-17T14:29:24;32.70;47.90
21275;DHT22;36472;52.170;20.884;2022-10-17T14:32:01;32.70;47.70
21275;DHT22;36472;52.170;20.884;2022-10-17T14:34:34;32.70;47.70
21275;DHT22;36472;52.170;20.884;2022-10-17T14:39:59;32.70;47.60
21275;DHT22;36472;52.170;20.884;2022-10-17T14:42:31;32.60;47.60
21275;DHT22;36472;52.170;20.884;2022-10-17T14:45:07;32.50;47.50
21275;DHT22;36472;52.170;20.884;2022-10-17T14:47:40;32.50;47.60
21275;DHT22;36472;52.170;20.884;2022-10-17T14:50:21;32.50;47.50
21275;DHT22;36472;52.170;20.884;2022-10-17T14:52:59;32.40;47.40
21275;DHT22;36472;52.170;20.884;2022-10-17T14:55:31;32.40;47.80
21275;DHT22;36472;52.170;20.884;2022-10-17T14:58:15;32.40;48.00
21275;DHT22;36472;52.170;20.884;2022-10-17T15:00:44;32.40;48.10
21275;DHT22;36472;52.170;20.884;2022-10-17T15:03:13;32.40;48.60
21275;DHT22;36472;52.170;20.884;2022-10-17T15:05:42;32.40;48.40
21275;DHT22;36472;52.170;20.884;2022-10-17T15:08:13;32.40;48.40
21275;DHT22;36472;52.170;20.884;2022-10-17T15:10:43;32.40;48.60
21275;DHT22;36472;52.170;20.884;2022-10-17T15:13:14;32.40;48.90
21275;DHT22;36472;52.170;20.884;2022-10-17T15:15:55;32.30;49.10
21275;DHT22;36472;52.170;20.884;2022-10-17T15:18:23;32.30;49.10
21275;DHT22;36472;52.170;20.884;2022-10-17T15:20:52;32.20;49.30
21275;DHT22;36472;52.170;20.884;2022-10-17T15:23:39;32.10;50.00
21275;DHT22;36472;52.170;20.884;2022-10-17T15:26:17;32.00;49.30
21275;DHT22;36472;52.170;20.884;2022-10-17T15:28:48;32.00;49.60
21275;DHT22;36472;52.170;20.884;2022-10-17T15:31:20;31.90;49.70
21275;DHT22;36472;52.170;20.884;2022-10-17T15:33:50;31.80;49.70
21275;DHT22;36472;52.170;20.884;2022-10-17T15:36:21;31.70;49.70
21275;DHT22;36472;52.170;20.884;2022-10-17T15:38:53;31.70;50.60
21275;DHT22;36472;52.170;20.884;2022-10-17T15:41:24;31.60;50.00
21275;DHT22;36472;52.170;20.884;2022-10-17T15:43:56;31.50;50.20
21275;DHT22;36472;52.170;20.884;2022-10-17T15:46:27;31.40;50.30
21275;DHT22;36472;52.170;20.884;2022-10-17T15:49:02;31.40;50.40
21275;DHT22;36472;52.170;20.884;2022-10-17T15:51:33;31.30;50.40
21275;DHT22;36472;52.170;20.884;2022-10-17T15:54:02;31.20;50.50
21275;DHT22;36472;52.170;20.884;2022-10-17T15:56:35;31.10;50.60
21275;DHT22;36472;52.170;20.884;2022-10-17T15:59:10;31.10;50.70
21275;DHT22;36472;52.170;20.884;2022-10-17T16:01:41;31.00;50.60
21275;DHT22;36472;52.170;20.884;2022-10-17T16:04:11;31.00;50.80
21275;DHT22;36472;52.170;20.884;2022-10-17T16:06:42;30.90;51.00
21275;DHT22;36472;52.170;20.884;2022-10-17T16:09:10;30.80;50.90
21275;DHT22;36472;52.170;20.884;2022-10-17T16:11:41;30.80;51.00
21275;DHT22;36472;52.170;20.884;2022-10-17T16:14:13;30.70;51.80
21275;DHT22;36472;52.170;20.884;2022-10-17T16:16:44;30.60;51.10
21275;DHT22;36472;52.170;20.884;2022-10-17T16:19:13;30.60;51.20
21275;DHT22;36472;52.170;20.884;2022-10-17T16:21:42;30.50;51.20
21275;DHT22;36472;52.170;20.884;2022-10-17T16:24:11;30.50;51.20
21275;DHT22;36472;52.170;20.884;2022-10-17T16:26:40;30.40;51.20
21275;DHT22;36472;52.170;20.884;2022-10-17T16:29:09;30.40;51.40
21275;DHT22;36472;52.170;20.884;2022-10-17T16:31:41;30.20;51.40
21275;DHT22;36472;52.170;20.884;2022-10-17T16:34:12;30.20;51.50
21275;DHT22;36472;52.170;20.884;2022-10-17T16:36:42;30.10;51.50
21275;DHT22;36472;52.170;20.884;2022-10-17T16:39:10;30.10;51.60
21275;DHT22;36472;52.170;20.884;2022-10-17T16:41:39;30.10;51.60
21275;DHT22;36472;52.170;20.884;2022-10-17T16:44:10;30.00;51.70
21275;DHT22;36472;52.170;20.884;2022-10-17T16:46:42;29.90;51.60
21275;DHT22;36472;52.170;20.884;2022-10-17T16:49:10;29.90;51.70
21275;DHT22;36472;52.170;20.884;2022-10-17T16:51:42;29.80;51.70
21275;DHT22;36472;52.170;20.884;2022-10-17T16:54:11;29.80;51.80
21275;DHT22;36472;52.170;20.884;2022-10-17T16:56:39;29.70;51.80
21275;DHT22;36472;52.170;20.884;2022-10-17T16:59:10;29.60;51.80
21275;DHT22;36472;52.170;20.884;2022-10-17T17:01:38;29.60;51.90
21275;DHT22;36472;52.170;20.884;2022-10-17T17:04:09;29.60;52.00
21275;DHT22;36472;52.170;20.884;2022-10-17T17:06:37;29.50;52.00
21275;DHT22;36472;52.170;20.884;2022-10-17T17:09:07;29.50;52.00
21275;DHT22;36472;52.170;20.884;2022-10-17T17:11:37;29.40;52.10
21275;DHT22;36472;52.170;20.884;2022-10-17T17:14:06;29.40;52.10
21275;DHT22;36472;52.170;20.884;2022-10-17T17:16:36;29.30;52.20
21275;DHT22;36472;52.170;20.884;2022-10-17T17:19:07;29.30;52.20
21275;DHT22;36472;52.170;20.884;2022-10-17T17:21:40;29.30;52.20
21275;DHT22;36472;52.170;20.884;2022-10-17T17:24:13;29.30;52.80
21275;DHT22;36472;52.170;20.884;2022-10-17T17:26:43;29.30;52.20
21275;DHT22;36472;52.170;20.884;2022-10-17T17:29:13;29.20;52.10
21275;DHT22;36472;52.170;20.884;2022-10-17T17:31:41;29.20;52.10
21275;DHT22;36472;52.170;20.884;2022-10-17T17:34:11;29.20;52.20
21275;DHT22;36472;52.170;20.884;2022-10-17T17:36:44;29.10;52.20
21275;DHT22;36472;52.170;20.884;2022-10-17T17:39:13;29.10;52.30
21275;DHT22;36472;52.170;20.884;2022-10-17T17:41:43;29.00;52.30
21275;DHT22;36472;52.170;20.884;2022-10-17T17:44:13;29.00;52.30
21275;DHT22;36472;52.170;20.884;2022-10-17T17:46:44;29.00;52.30
21275;DHT22;36472;52.170;20.884;2022-10-17T17:49:14;29.00;52.30
21275;DHT22;36472;52.170;20.884;2022-10-17T17:51:43;28.90;52.40
21275;DHT22;36472;52.170;20.884;2022-10-17T17:54:13;28.90;52.50
21275;DHT22;36472;52.170;20.884;2022-10-17T17:56:42;28.80;52.40
21275;DHT22;36472;52.170;20.884;2022-10-17T17:59:11;28.80;52.40
21275;DHT22;36472;52.170;20.884;2022-10-17T18:01:41;28.70;52.40
21275;DHT22;36472;52.170;20.884;2022-10-17T18:04:10;28.70;52.50
21275;DHT22;36472;52.170;20.884;2022-10-17T18:06:41;28.60;52.40
21275;DHT22;36472;52.170;20.884;2022-10-17T18:09:10;28.60;52.40
21275;DHT22;36472;52.170;20.884;2022-10-17T18:11:39;28.60;52.50
21275;DHT22;36472;52.170;20.884;2022-10-17T18:14:10;28.50;52.50
21275;DHT22;36472;52.170;20.884;2022-10-17T18:16:40;28.50;52.60
21275;DHT22;36472;52.170;20.884;2022-10-17T18:19:10;28.50;52.60
21275;DHT22;36472;52.170;20.884;2022-10-17T18:21:40;28.40;52.70
21275;DHT22;36472;52.170;20.884;2022-10-17T18:24:10;28.30;53.40
21275;DHT22;36472;52.170;20.884;2022-10-17T18:26:39;28.30;52.80
21275;DHT22;36472;52.170;20.884;2022-10-17T18:29:07;28.30;52.90
21275;DHT22;36472;52.170;20.884;2022-10-17T18:31:38;28.20;53.00
21275;DHT22;36472;52.170;20.884;2022-10-17T18:34:06;28.20;53.20
21275;DHT22;36472;52.170;20.884;2022-10-17T18:36:35;28.20;53.30
21275;DHT22;36472;52.170;20.884;2022-10-17T18:39:05;28.20;53.60
21275;DHT22;36472;52.170;20.884;2022-10-17T18:41:35;28.20;53.50
21275;DHT22;36472;52.170;20.884;2022-10-17T18:44:04;28.20;53.70
21275;DHT22;36472;52.170;20.884;2022-10-17T18:46:34;28.20;53.50
21275;DHT22;36472;52.170;20.884;2022-10-17T18:49:08;28.20;53.70
21275;DHT22;36472;52.170;20.884;2022-10-17T18:51:40;28.20;53.50
21275;DHT22;36472;52.170;20.884;2022-10-17T18:54:13;28.20;53.60